Terminal Aerodrome Forecast
Issued by NWS

Home | Current Version | Previous Version | Text Only | Print | Product List | Glossary On
Versions: 1 2 3 4 5 6 7 8 9 10 11 12 13 14 15 16 17 18
000
FTPQ31 PGUM 201217 CCA
TAFKWA
TAF COR
PKWA 201217Z 2012/2112 11012KT 6SM -RA SCT014 BKN030 OVC080
      TEMPO 2012/2015 10015G25KT 2SM +SHRA BKN012 OVC020
     FM201500 10011KT P6SM VCSH SCT016 BKN050 OVC100=

USA.gov is the U.S. government's official web portal to all federal, state and local government web resources and services.